KRPH

Graham Municipal Airport

Graham, Texas, USA
METAR KRPH 162155Z AUTO 00000KT 10SM CLR 14/05 A3021 RMK AO2 T01370047
Observed Flight Rules
Dec-16 @ 21:55 UTC (28 minutes ago) Visual Flight Rules
Visibility Clouds
10 miles
  • Clear skies
Temperatures Readings
Current 14°C / 57°F
Dewpoint 5°C / 41°F
Humidity 55%
Altimeter 30.21" Hg
Pressure 1023 hPa
Elevation 342
METAR KRPH 162155Z AUTO 00000KT 10SM CLR 14/05 A3021 RMK AO2 T01370047
Observed Flight Rules
Dec-16 @ 21:55 UTC
(28 minutes ago)
VFR
Clouds
  • Clear skies
Temperature Dewpoint
14°C / 57°F 5°C / 41°F
Humidity Altimeter Pressure
55% 30.21" Hg 1023 hPa